Fulton, IL

11:19 PM CST on December 10, 2016 (GMT -0600)
Mayer Farm @ Eagle Point | | Change Station
Active Advisory: Winter Weather Advisory

Elev 732 ft 41.89 °N, 90.19 °W | Updated 10 minutes ago

Overcast
Overcast
23.7 °F
Feels Like 15 °F
N
8.0
Wind Variable Wind from ESE
Gusts 13.0 mph

Today
High -- | Low -- °F
--% Chance of Precip.
Yesterday
High -- | Low -- °F
Precip. -- in
Pressure 30.27 in
Visibility 9.0 miles
Clouds Few 1000 ft
Scattered Clouds 3900 ft
Overcast 4900 ft
Windchill 15 °F
Dew Point 22 °F
Humidity 91%
Rainfall 0.00 in
Snow Depth Not available.
7:17 AM 4:29 PM
Waxing Gibbous, 89% visible
METAR KCWI 110456Z AUTO 12014KT 9SM FEW010 SCT039 OVC049 M05/M07 A3018 RMK AO2 SNE51 SLP248 P0000 T10501067 410281094 FZRANO
Pressure 30.27 in
Visibility 9.0 miles
Clouds Few 1000 ft
Scattered Clouds 3900 ft
Overcast 4900 ft
Windchill 15 °F
Dew Point 22 °F
Humidity 91%
Rainfall 0.00 in
Snow Depth Not available.
7:17 AM 4:29 PM
Waxing Gibbous, 89% visible
METAR KCWI 110456Z AUTO 12014KT 9SM FEW010 SCT039 OVC049 M05/M07 A3018 RMK AO2 SNE51 SLP248 P0000 T10501067 410281094 FZRANO

10-Day Weather Forecast

Almanac

Astronomy

Dec. 10, 2016 Rise Set
Actual Time
Civil Twilight
Nautical Twilight
Astronomical Twilight
Moon
Length of Visible Light
Length of Day
Tomorrow will be .
, % of the Moon is Illuminated

Today's Extremes

State Highs State Lows

Community

WunderPhotos

Upload Photos

1,956,705 photos uploaded!

WunderBlog® & News

Nearby

Air Quality

  Air Quality AQ Index Pollutant
Not available.

Snow Depth

Station Depth Elevation

Earthquake Activity

City Distance Mag. Time & Date
Minimum magnitude displayed is 2.5.

Coastal Water Temperatures

Place Temperature

Stations

Nearby Weather Stations

Station Location Temp. Windchill Dew Point Humidity Wind Precip. Elev Updated Type
                   

Watches & Warnings

Winter Weather Advisory
Issued: 7:37 PM CST Dec. 10, 2016 – National Weather Service

... Winter Weather Advisory remains in effect until 6 PM CST
Sunday...

* timing... periods of snow overnight through Sunday.

* Snow accumulations... 5 to 7 inches.

* Wind... southeast 10 to 15 mph with gusts up to 20 mph.

* Temperatures... 20 to 25 degrees overnight... warming to the low
30s during the day Sunday.

* Impacts... light to moderate snowfall will create slippery
travel conditions over the area... and will reduce visibility
to under 1 mile at times.

Precautionary/preparedness actions...

A Winter Weather Advisory for snow means that periods of snow
will cause primarily travel difficulties. Be prepared for snow
covered roads and limited visibilities... and use caution while
driving.